Time;durP1;ratioP1;P1;durP2;ratioP2;P2;SDS_P1;SDS_P2;PMS_P1;PMS_P2;Temp;Humidity;BMP_temperature;BMP_pressure;BME280_temperature;BME280_humidity;BME280_pressure;Samples;Min_cycle;Max_cycle;Signal;HPM_P1;HPM_P2
2022/12/06 00:00:29;;;;;;;12.98;6.70;;;;;;;;;;5045632;28;20045;-73
2022/12/06 00:02:55;;;;;;;20.70;6.75;;;;;;;;;;5043223;28;20044;-74
2022/12/06 00:05:21;;;;;;;17.05;6.60;;;;;;;;;;5042046;28;20135;-73
2022/12/06 00:07:48;;;;;;;16.92;6.50;;;;;;;;;;5042055;28;20048;-75
2022/12/06 00:10:15;;;;;;;19.95;6.18;;;;;;;;;;5044907;28;20065;-74
2022/12/06 00:12:41;;;;;;;16.50;6.10;;;;;;;;;;5040450;28;20045;-74
2022/12/06 00:15:07;;;;;;;16.02;6.22;;;;;;;;;;5043580;28;20047;-75
2022/12/06 00:17:33;;;;;;;16.95;5.70;;;;;;;;;;5040967;28;20049;-74
2022/12/06 00:19:59;;;;;;;15.82;5.30;;;;;;;;;;5042389;28;20048;-75
2022/12/06 00:22:26;;;;;;;12.05;5.88;;;;;;;;;;5041082;28;20071;-73
2022/12/06 00:24:52;;;;;;;13.63;5.70;;;;;;;;;;5046041;28;20098;-75
2022/12/06 00:27:18;;;;;;;12.93;5.50;;;;;;;;;;5042556;28;20048;-75
2022/12/06 00:29:44;;;;;;;14.40;5.28;;;;;;;;;;5046295;28;20041;-75
2022/12/06 00:32:10;;;;;;;15.05;5.93;;;;;;;;;;5044986;28;20074;-73
2022/12/06 00:34:36;;;;;;;14.98;5.95;;;;;;;;;;5042238;28;20490;-74
2022/12/06 00:37:02;;;;;;;16.65;5.88;;;;;;;;;;5043740;28;20037;-73
2022/12/06 00:39:28;;;;;;;15.98;5.57;;;;;;;;;;5026209;28;20570;-75
2022/12/06 00:41:57;;;;;;;10.77;5.63;;;;;;;;;;5046011;28;20045;-75
2022/12/06 00:44:23;;;;;;;12.05;4.97;;;;;;;;;;5044267;28;21956;-73
2022/12/06 00:46:49;;;;;;;12.52;5.53;;;;;;;;;;5042988;28;20040;-74
2022/12/06 00:49:15;;;;;;;15.80;5.80;;;;;;;;;;5045256;28;20443;-73
2022/12/06 00:51:41;;;;;;;16.63;6.20;;;;;;;;;;5042798;28;20051;-76
2022/12/06 00:54:08;;;;;;;13.02;5.63;;;;;;;;;;5042906;28;20069;-76
2022/12/06 00:56:35;;;;;;;19.20;5.57;;;;;;;;;;5042425;28;20048;-75
2022/12/06 00:59:01;;;;;;;11.95;5.60;;;;;;;;;;5043110;28;20049;-76
2022/12/06 01:01:28;;;;;;;9.20;5.07;;;;;;;;;;5042544;28;20040;-73
2022/12/06 01:03:58;;;;;;;15.02;5.93;;;;;;;;;;5024706;28;20432;-75
2022/12/06 01:06:26;;;;;;;12.98;5.22;;;;;;;;;;5042826;28;20422;-74
2022/12/06 01:08:53;;;;;;;9.73;5.53;;;;;;;;;;5042087;28;20044;-75
2022/12/06 01:11:21;;;;;;;15.60;5.80;;;;;;;;;;5026370;28;20718;-76
2022/12/06 01:13:47;;;;;;;13.77;6.20;;;;;;;;;;5029386;28;20119;-74
2022/12/06 01:16:15;;;;;;;11.23;5.90;;;;;;;;;;5036668;28;20053;-74
2022/12/06 01:18:42;;;;;;;15.25;6.00;;;;;;;;;;5023485;28;20082;-76
2022/12/06 01:21:10;;;;;;;12.48;5.70;;;;;;;;;;5028359;28;20048;-73
2022/12/06 01:23:36;;;;;;;14.38;5.82;;;;;;;;;;5043238;28;20135;-73
2022/12/06 01:26:02;;;;;;;18.38;6.32;;;;;;;;;;5044237;28;20045;-75
2022/12/06 01:28:28;;;;;;;15.70;6.50;;;;;;;;;;5041280;28;20048;-73
2022/12/06 01:30:54;;;;;;;12.15;6.20;;;;;;;;;;5045342;28;20044;-76
2022/12/06 01:33:20;;;;;;;17.23;5.82;;;;;;;;;;5028792;28;20048;-74
2022/12/06 01:35:47;;;;;;;15.65;6.47;;;;;;;;;;5030868;28;20044;-78
2022/12/06 01:38:12;;;;;;;17.55;6.40;;;;;;;;;;5046117;28;20063;-76
2022/12/06 01:40:39;;;;;;;14.88;6.47;;;;;;;;;;5035199;28;20084;-73
2022/12/06 01:43:06;;;;;;;14.13;6.15;;;;;;;;;;5027550;28;20053;-75
2022/12/06 01:45:32;;;;;;;14.75;6.10;;;;;;;;;;5045208;28;20064;-75
2022/12/06 01:47:58;;;;;;;13.93;5.95;;;;;;;;;;5046607;28;20041;-75
2022/12/06 01:50:26;;;;;;;16.65;5.82;;;;;;;;;;5046991;28;20047;-75
2022/12/06 01:53:01;;;;;;;17.30;6.28;;;;;;;;;;5042289;28;20048;-75
2022/12/06 01:55:28;;;;;;;18.98;5.95;;;;;;;;;;5045649;28;20041;-72
2022/12/06 01:57:57;;;;;;;11.02;5.50;;;;;;;;;;5045899;28;20049;-75
2022/12/06 02:00:23;;;;;;;11.60;5.80;;;;;;;;;;5042454;28;20107;-75
2022/12/06 02:02:49;;;;;;;12.25;4.82;;;;;;;;;;5045983;28;20071;-76
2022/12/06 02:05:16;;;;;;;10.48;4.85;;;;;;;;;;5031020;28;20071;-74
2022/12/06 02:07:42;;;;;;;12.95;3.85;;;;;;;;;;5042861;28;20133;-74
2022/12/06 02:10:09;;;;;;;6.60;3.22;;;;;;;;;;5046016;28;20040;-73
2022/12/06 02:12:35;;;;;;;10.18;3.20;;;;;;;;;;5028649;28;20419;-73
2022/12/06 02:15:01;;;;;;;7.78;3.70;;;;;;;;;;5045934;28;20068;-73
2022/12/06 02:17:38;;;;;;;9.07;3.10;;;;;;;;;;5042137;28;20048;-75
2022/12/06 02:20:06;;;;;;;10.32;3.08;;;;;;;;;;5045498;28;20510;-73
2022/12/06 02:22:36;;;;;;;9.30;3.85;;;;;;;;;;5042575;28;20032;-73
2022/12/06 02:25:19;;;;;;;7.53;2.53;;;;;;;;;;5045001;28;20416;-73
2022/12/06 02:27:45;;;;;;;5.57;2.42;;;;;;;;;;5040187;28;20045;-74
2022/12/06 02:30:30;;;;;;;4.78;2.70;;;;;;;;;;5044444;28;20048;-76
2022/12/06 02:32:58;;;;;;;6.60;2.53;;;;;;;;;;5044601;28;20044;-73
2022/12/06 02:35:29;;;;;;;8.07;2.75;;;;;;;;;;5043641;28;20051;-71
2022/12/06 02:37:58;;;;;;;5.30;2.55;;;;;;;;;;5044557;28;20052;-72
2022/12/06 02:40:29;;;;;;;8.75;2.42;;;;;;;;;;5043274;28;20049;-72
2022/12/06 02:43:04;;;;;;;6.00;2.80;;;;;;;;;;5045538;28;20334;-72
2022/12/06 02:45:32;;;;;;;6.15;2.50;;;;;;;;;;5042643;28;20049;-71
2022/12/06 02:48:01;;;;;;;6.30;2.58;;;;;;;;;;5027202;28;20048;-72
2022/12/06 02:50:33;;;;;;;8.70;2.83;;;;;;;;;;5041414;28;20048;-72
2022/12/06 02:53:00;;;;;;;5.90;2.88;;;;;;;;;;5040943;28;20037;-72
2022/12/06 02:55:27;;;;;;;4.18;2.65;;;;;;;;;;5044005;28;20041;-72
2022/12/06 02:57:55;;;;;;;5.88;3.22;;;;;;;;;;5045318;28;20492;-71
2022/12/06 03:00:25;;;;;;;4.03;2.60;;;;;;;;;;5043889;28;20403;-74
2022/12/06 03:02:54;;;;;;;6.57;2.88;;;;;;;;;;5044481;28;20041;-73
2022/12/06 03:05:23;;;;;;;7.00;2.95;;;;;;;;;;5047126;28;20051;-75
2022/12/06 03:07:50;;;;;;;6.18;2.67;;;;;;;;;;5043269;28;20041;-71
2022/12/06 03:10:16;;;;;;;6.55;3.20;;;;;;;;;;5042709;28;20131;-72
2022/12/06 03:12:49;;;;;;;7.63;3.05;;;;;;;;;;5043636;28;20700;-72
2022/12/06 03:15:15;;;;;;;6.60;2.72;;;;;;;;;;5040926;28;20037;-74
2022/12/06 03:17:52;;;;;;;8.15;3.28;;;;;;;;;;5043320;28;20049;-73
2022/12/06 03:20:25;;;;;;;4.35;2.80;;;;;;;;;;5043305;28;20051;-71
2022/12/06 03:22:54;;;;;;;8.48;3.45;;;;;;;;;;5040892;28;20071;-72
2022/12/06 03:25:20;;;;;;;7.72;3.83;;;;;;;;;;5044940;28;20049;-72
2022/12/06 03:27:47;;;;;;;9.35;4.05;;;;;;;;;;5044262;28;20053;-72
2022/12/06 03:30:14;;;;;;;6.30;3.88;;;;;;;;;;5024089;28;20106;-72
2022/12/06 03:32:42;;;;;;;9.52;4.20;;;;;;;;;;5046258;28;20997;-75
2022/12/06 03:35:09;;;;;;;15.25;5.20;;;;;;;;;;5044465;28;20087;-72
2022/12/06 03:37:37;;;;;;;10.02;5.15;;;;;;;;;;5041907;28;20040;-74
2022/12/06 03:40:13;;;;;;;8.75;4.80;;;;;;;;;;5042630;28;20083;-73
2022/12/06 03:42:39;;;;;;;9.48;5.35;;;;;;;;;;5042301;28;20041;-72
2022/12/06 03:45:06;;;;;;;12.60;4.68;;;;;;;;;;5026785;28;20060;-73
2022/12/06 03:47:51;;;;;;;11.88;4.60;;;;;;;;;;5042910;28;21750;-71
2022/12/06 03:50:20;;;;;;;13.80;5.18;;;;;;;;;;5041802;28;20068;-74
2022/12/06 03:52:46;;;;;;;8.38;4.82;;;;;;;;;;5041056;28;20043;-72
2022/12/06 03:55:12;;;;;;;9.10;4.90;;;;;;;;;;5041654;28;20098;-72
2022/12/06 03:57:38;;;;;;;10.00;4.75;;;;;;;;;;5041777;28;20044;-74
2022/12/06 04:00:05;;;;;;;11.05;4.55;;;;;;;;;;5042177;28;22089;-72
2022/12/06 04:02:31;;;;;;;9.07;5.03;;;;;;;;;;5039812;28;20041;-73
2022/12/06 04:04:57;;;;;;;9.52;5.10;;;;;;;;;;5041312;28;20053;-72
2022/12/06 04:07:23;;;;;;;11.65;5.10;;;;;;;;;;5041880;28;20045;-72
2022/12/06 04:09:54;;;;;;;8.98;4.60;;;;;;;;;;5026056;28;20052;-73
2022/12/06 04:15:07;;;;;;;9.98;4.78;;;;;;;;;;5042394;28;20048;-75
2022/12/06 04:20:17;;;;;;;7.60;4.55;;;;;;;;;;5041685;28;20037;-72
2022/12/06 04:25:28;;;;;;;7.88;4.72;;;;;;;;;;5042211;28;20088;-73
2022/12/06 04:38:52;;;;;;;6.40;3.53;;;;;;;;;;5040889;28;20087;-74
2022/12/06 04:44:04;;;;;;;7.03;3.33;;;;;;;;;;5042544;28;20045;-74
2022/12/06 04:46:30;;;;;;;8.70;3.92;;;;;;;;;;5041444;28;20049;-75
2022/12/06 04:48:57;;;;;;;5.80;3.70;;;;;;;;;;5040227;28;20044;-73
2022/12/06 04:51:23;;;;;;;6.45;3.63;;;;;;;;;;5041843;28;20037;-74
2022/12/06 04:53:49;;;;;;;10.32;3.55;;;;;;;;;;5043558;28;20037;-73
2022/12/06 04:56:15;;;;;;;6.53;3.50;;;;;;;;;;5036747;28;20051;-73
2022/12/06 04:58:42;;;;;;;8.80;3.60;;;;;;;;;;5028088;28;20128;-76
2022/12/06 05:01:08;;;;;;;7.63;3.92;;;;;;;;;;5042804;28;20068;-76
2022/12/06 05:03:34;;;;;;;5.13;3.22;;;;;;;;;;5022992;28;20063;-75
2022/12/06 05:06:00;;;;;;;5.72;3.17;;;;;;;;;;5039510;28;20211;-73
2022/12/06 05:08:26;;;;;;;8.13;3.13;;;;;;;;;;5041488;28;20076;-74
2022/12/06 05:10:52;;;;;;;9.35;3.05;;;;;;;;;;5038654;28;20482;-75
2022/12/06 05:13:19;;;;;;;5.53;3.15;;;;;;;;;;5040834;28;20091;-76
2022/12/06 05:15:52;;;;;;;6.32;3.50;;;;;;;;;;5042686;28;20036;-73
2022/12/06 05:18:18;;;;;;;7.50;3.17;;;;;;;;;;5029079;28;20056;-74
2022/12/06 05:20:44;;;;;;;6.15;2.97;;;;;;;;;;5029993;28;20078;-74
2022/12/06 05:23:11;;;;;;;6.05;3.40;;;;;;;;;;5041029;28;20091;-75
2022/12/06 05:25:37;;;;;;;6.13;3.10;;;;;;;;;;5025188;28;20064;-75
2022/12/06 05:28:03;;;;;;;6.18;3.10;;;;;;;;;;5025964;28;20099;-74
2022/12/06 05:30:29;;;;;;;7.95;3.50;;;;;;;;;;5042103;28;20159;-76
2022/12/06 05:32:55;;;;;;;7.75;3.38;;;;;;;;;;5037834;28;20123;-74
2022/12/06 05:35:21;;;;;;;10.95;3.30;;;;;;;;;;5042312;28;20124;-75
2022/12/06 05:37:47;;;;;;;8.88;3.40;;;;;;;;;;5041480;28;20045;-76
2022/12/06 05:40:13;;;;;;;6.07;3.25;;;;;;;;;;5044873;28;20040;-75
2022/12/06 05:42:40;;;;;;;5.18;3.08;;;;;;;;;;5041329;28;20048;-76
2022/12/06 05:45:06;;;;;;;6.13;3.28;;;;;;;;;;5043308;28;20049;-74
2022/12/06 05:47:32;;;;;;;7.18;3.50;;;;;;;;;;5042438;28;20135;-73
2022/12/06 05:49:58;;;;;;;9.10;3.30;;;;;;;;;;5043386;28;20124;-74
2022/12/06 05:52:24;;;;;;;5.97;3.50;;;;;;;;;;5040418;28;20033;-74
2022/12/06 05:54:50;;;;;;;6.88;3.58;;;;;;;;;;5027227;28;20087;-74
2022/12/06 05:57:16;;;;;;;7.35;3.47;;;;;;;;;;5041645;28;20140;-75
2022/12/06 05:59:42;;;;;;;13.68;4.50;;;;;;;;;;5044070;28;20123;-74
2022/12/06 06:02:08;;;;;;;6.28;3.47;;;;;;;;;;5041319;28;20478;-73
2022/12/06 06:04:34;;;;;;;10.18;3.80;;;;;;;;;;5040777;28;20045;-75
2022/12/06 06:07:00;;;;;;;6.20;3.58;;;;;;;;;;5040788;28;20112;-74
2022/12/06 06:09:26;;;;;;;9.07;3.78;;;;;;;;;;5034121;28;20558;-74
2022/12/06 06:11:53;;;;;;;8.18;3.88;;;;;;;;;;5022727;28;20053;-73
2022/12/06 06:14:20;;;;;;;9.65;3.72;;;;;;;;;;5040256;28;20499;-75
2022/12/06 06:16:46;;;;;;;9.10;3.58;;;;;;;;;;5040975;28;20068;-73
2022/12/06 06:19:12;;;;;;;7.18;3.70;;;;;;;;;;5043330;28;20099;-74
2022/12/06 06:21:38;;;;;;;5.20;3.58;;;;;;;;;;5044668;28;20048;-75
2022/12/06 06:24:04;;;;;;;5.35;3.60;;;;;;;;;;5042265;28;20049;-72
2022/12/06 06:26:30;;;;;;;9.05;4.45;;;;;;;;;;5037965;28;20041;-75
2022/12/06 06:28:56;;;;;;;12.38;4.32;;;;;;;;;;5040831;28;20099;-73
2022/12/06 06:31:22;;;;;;;10.77;4.45;;;;;;;;;;5038321;28;20048;-74
2022/12/06 06:33:48;;;;;;;9.60;4.32;;;;;;;;;;5042107;28;20045;-75
2022/12/06 06:36:14;;;;;;;318.58;268.92;;;;;;;;;;5041828;28;20048;-73
2022/12/06 06:38:40;;;;;;;44.97;30.08;;;;;;;;;;5037850;28;20045;-74
2022/12/06 06:41:06;;;;;;;46.85;40.38;;;;;;;;;;5044150;28;20075;-73
2022/12/06 06:43:32;;;;;;;52.67;47.10;;;;;;;;;;5045965;28;20052;-74
2022/12/06 06:45:59;;;;;;;21.17;17.92;;;;;;;;;;5048453;28;20500;-73
2022/12/06 06:48:26;;;;;;;10.45;5.97;;;;;;;;;;5048136;28;20140;-74
2022/12/06 06:50:52;;;;;;;10.40;4.60;;;;;;;;;;5051307;28;20404;-72
2022/12/06 06:53:19;;;;;;;12.20;7.10;;;;;;;;;;5028257;28;20416;-73
2022/12/06 06:55:45;;;;;;;8.40;6.57;;;;;;;;;;5042853;28;20499;-72
2022/12/06 06:58:13;;;;;;;9.63;4.60;;;;;;;;;;5026438;28;20110;-73
2022/12/06 07:00:39;;;;;;;6.50;4.22;;;;;;;;;;5041068;28;22185;-75
2022/12/06 07:03:05;;;;;;;9.85;3.70;;;;;;;;;;5025715;28;20460;-75
2022/12/06 07:05:31;;;;;;;9.60;3.80;;;;;;;;;;5037824;28;20049;-74
2022/12/06 07:07:57;;;;;;;7.10;4.20;;;;;;;;;;5040424;28;20163;-74
2022/12/06 07:10:26;;;;;;;7.68;3.92;;;;;;;;;;5046497;28;20501;-74
2022/12/06 07:12:53;;;;;;;6.22;3.63;;;;;;;;;;5042247;28;20192;-72
2022/12/06 07:15:20;;;;;;;6.85;3.50;;;;;;;;;;5038068;28;20044;-74
2022/12/06 07:17:46;;;;;;;11.60;3.67;;;;;;;;;;5039542;28;20047;-74
2022/12/06 07:20:12;;;;;;;7.18;4.00;;;;;;;;;;5039778;28;20052;-74
2022/12/06 07:22:38;;;;;;;6.43;3.78;;;;;;;;;;5038664;28;20059;-72
2022/12/06 07:25:05;;;;;;;11.27;3.70;;;;;;;;;;5041997;28;20041;-72
2022/12/06 07:27:37;;;;;;;13.38;4.47;;;;;;;;;;5024587;28;20033;-71
2022/12/06 07:30:06;;;;;;;8.75;4.30;;;;;;;;;;5042543;28;20056;-73
2022/12/06 07:32:36;;;;;;;9.77;3.85;;;;;;;;;;5039749;28;20510;-73
2022/12/06 07:35:02;;;;;;;12.80;4.63;;;;;;;;;;5039464;28;20048;-73
2022/12/06 07:37:28;;;;;;;12.52;4.70;;;;;;;;;;5038545;28;20502;-73
2022/12/06 07:39:54;;;;;;;12.27;4.82;;;;;;;;;;5043979;28;20064;-74
2022/12/06 07:45:07;;;;;;;5.72;4.90;;;;;;;;;;5040035;28;20559;-73
2022/12/06 07:47:40;;;;;;;9.48;4.38;;;;;;;;;;5036270;28;20052;-72
2022/12/06 07:50:08;;;;;;;12.10;4.80;;;;;;;;;;5038967;28;20104;-72
2022/12/06 07:52:34;;;;;;;17.80;4.70;;;;;;;;;;5038373;28;20164;-70
2022/12/06 07:55:01;;;;;;;57.75;5.82;;;;;;;;;;5037012;28;20061;-72
2022/12/06 07:57:27;;;;;;;34.35;4.82;;;;;;;;;;5039527;28;20041;-70
2022/12/06 07:59:54;;;;;;;17.13;3.80;;;;;;;;;;5039536;28;20052;-70
2022/12/06 08:02:21;;;;;;;11.30;4.80;;;;;;;;;;5038432;28;20048;-69
2022/12/06 08:04:47;;;;;;;5.38;4.10;;;;;;;;;;5040497;28;20060;-72
2022/12/06 08:07:14;;;;;;;6.85;4.38;;;;;;;;;;5044939;28;20098;-72
2022/12/06 08:09:40;;;;;;;8.07;4.05;;;;;;;;;;5046188;28;20578;-72
2022/12/06 08:12:06;;;;;;;14.60;4.95;;;;;;;;;;5038299;28;20183;-72
2022/12/06 08:14:32;;;;;;;25.00;4.78;;;;;;;;;;5037337;28;20037;-71
2022/12/06 08:16:58;;;;;;;5.20;3.70;;;;;;;;;;5040880;28;20045;-71
2022/12/06 08:19:24;;;;;;;5.25;4.57;;;;;;;;;;5040020;28;20064;-71
2022/12/06 08:21:50;;;;;;;6.80;4.40;;;;;;;;;;5040233;28;20044;-70
2022/12/06 08:24:16;;;;;;;6.13;4.13;;;;;;;;;;5037263;28;20053;-72
2022/12/06 08:26:42;;;;;;;19.00;4.30;;;;;;;;;;5040578;28;20049;-73
2022/12/06 08:29:08;;;;;;;5.80;4.00;;;;;;;;;;5038799;28;20060;-73
2022/12/06 08:31:34;;;;;;;9.90;4.18;;;;;;;;;;5037261;28;20427;-71
2022/12/06 08:34:01;;;;;;;6.70;3.80;;;;;;;;;;5039475;28;20665;-74
2022/12/06 08:36:27;;;;;;;4.63;3.92;;;;;;;;;;5039181;28;20041;-71
2022/12/06 08:38:54;;;;;;;5.60;4.35;;;;;;;;;;5037292;28;20049;-71
2022/12/06 08:44:06;;;;;;;16.48;9.80;;;;;;;;;;5036470;28;20057;-73
2022/12/06 08:46:32;;;;;;;16.33;11.27;;;;;;;;;;5038453;28;20049;-71
2022/12/06 08:48:59;;;;;;;13.10;10.63;;;;;;;;;;5038661;28;20044;-70
2022/12/06 08:51:25;;;;;;;7.22;5.70;;;;;;;;;;5040358;28;20064;-70
2022/12/06 08:53:52;;;;;;;12.82;9.93;;;;;;;;;;5035141;28;20037;-70
2022/12/06 08:56:18;;;;;;;8.15;7.00;;;;;;;;;;5038644;28;20053;-72
2022/12/06 08:58:44;;;;;;;9.25;7.03;;;;;;;;;;5039738;28;20048;-71
2022/12/06 09:01:14;;;;;;;16.55;14.05;;;;;;;;;;5037996;28;20090;-70
2022/12/06 09:03:40;;;;;;;11.63;9.63;;;;;;;;;;5036438;28;20068;-71
2022/12/06 09:06:06;;;;;;;12.38;10.20;;;;;;;;;;5035191;28;20450;-71
2022/12/06 09:08:32;;;;;;;10.98;8.95;;;;;;;;;;5036219;28;20036;-72
2022/12/06 09:10:58;;;;;;;11.27;6.95;;;;;;;;;;5037676;28;20443;-73
2022/12/06 09:13:24;;;;;;;10.25;5.30;;;;;;;;;;5023660;28;20088;-71
2022/12/06 09:15:50;;;;;;;8.43;4.93;;;;;;;;;;5032283;28;20068;-72
2022/12/06 09:18:16;;;;;;;7.85;5.35;;;;;;;;;;5040064;28;20121;-71
2022/12/06 09:20:42;;;;;;;7.30;4.47;;;;;;;;;;5039158;28;20107;-71
2022/12/06 09:23:08;;;;;;;11.77;5.10;;;;;;;;;;5037481;28;20045;-73
2022/12/06 09:25:34;;;;;;;10.27;5.18;;;;;;;;;;5038045;28;20049;-73
2022/12/06 09:28:00;;;;;;;7.38;4.85;;;;;;;;;;5036887;28;20068;-73
2022/12/06 09:30:26;;;;;;;10.50;4.43;;;;;;;;;;5033542;28;20043;-71
2022/12/06 09:32:52;;;;;;;9.60;4.60;;;;;;;;;;5023113;28;20480;-70
2022/12/06 09:35:18;;;;;;;6.13;4.35;;;;;;;;;;5022777;28;20119;-73
2022/12/06 09:37:45;;;;;;;7.13;4.70;;;;;;;;;;5036193;28;20591;-70
2022/12/06 09:40:15;;;;;;;6.05;4.70;;;;;;;;;;5037743;28;20041;-72
2022/12/06 09:42:47;;;;;;;10.13;4.68;;;;;;;;;;5035211;28;20041;-72
2022/12/06 09:45:22;;;;;;;7.72;4.32;;;;;;;;;;5021963;28;20572;-70
2022/12/06 09:47:57;;;;;;;7.40;3.70;;;;;;;;;;5037518;28;20091;-74
2022/12/06 09:50:37;;;;;;;11.20;4.32;;;;;;;;;;5037839;28;20082;-74
2022/12/06 09:53:09;;;;;;;10.43;3.95;;;;;;;;;;5041613;28;20039;-73
2022/12/06 09:55:54;;;;;;;6.72;2.90;;;;;;;;;;5038979;28;20072;-72
2022/12/06 09:58:30;;;;;;;6.53;3.30;;;;;;;;;;5024454;28;20102;-73
2022/12/06 10:01:07;;;;;;;6.97;3.17;;;;;;;;;;5040034;28;20053;-73
2022/12/06 10:03:38;;;;;;;7.10;3.38;;;;;;;;;;5039297;28;22042;-70
2022/12/06 10:06:08;;;;;;;5.47;3.15;;;;;;;;;;5034196;28;20048;-73
2022/12/06 10:08:44;;;;;;;6.65;3.33;;;;;;;;;;5038696;28;20077;-70
2022/12/06 10:11:22;;;;;;;5.00;3.10;;;;;;;;;;5020959;28;20106;-70
2022/12/06 10:13:56;;;;;;;4.80;2.92;;;;;;;;;;5042418;28;20041;-71
2022/12/06 10:16:41;;;;;;;5.57;2.90;;;;;;;;;;5039711;28;20510;-74
2022/12/06 10:19:26;;;;;;;5.78;2.70;;;;;;;;;;5037664;28;20143;-72
2022/12/06 10:21:52;;;;;;;5.03;2.92;;;;;;;;;;5041313;28;20068;-73
2022/12/06 10:24:38;;;;;;;8.35;2.95;;;;;;;;;;5038333;28;20122;-72
2022/12/06 10:27:09;;;;;;;8.73;3.20;;;;;;;;;;5031897;28;20049;-71
2022/12/06 10:29:50;;;;;;;4.75;2.63;;;;;;;;;;5038687;28;20183;-73
2022/12/06 10:32:33;;;;;;;8.00;2.67;;;;;;;;;;5035914;28;20056;-70
2022/12/06 10:35:04;;;;;;;7.15;2.70;;;;;;;;;;5018301;28;20136;-73
2022/12/06 10:37:39;;;;;;;7.40;3.20;;;;;;;;;;5041873;28;20045;-73
2022/12/06 10:40:24;;;;;;;3.72;2.75;;;;;;;;;;5043674;28;20455;-72
2022/12/06 10:42:55;;;;;;;6.82;3.28;;;;;;;;;;5024773;28;20044;-72
2022/12/06 10:48:24;;;;;;;4.15;2.55;;;;;;;;;;5044379;28;20045;-71
2022/12/06 10:50:54;;;;;;;5.75;2.75;;;;;;;;;;5045991;28;20462;-71
2022/12/06 10:53:23;;;;;;;5.80;2.50;;;;;;;;;;5045938;28;20128;-70
2022/12/06 10:55:49;;;;;;;3.95;2.55;;;;;;;;;;5043694;28;20444;-70
2022/12/06 10:58:18;;;;;;;5.78;2.95;;;;;;;;;;5046317;28;20049;-73
2022/12/06 11:00:56;;;;;;;9.00;5.35;;;;;;;;;;5038160;28;20049;-72
2022/12/06 11:03:34;;;;;;;4.53;2.85;;;;;;;;;;5044247;28;20057;-72
2022/12/06 11:06:09;;;;;;;5.55;2.85;;;;;;;;;;5041956;28;20056;-71
2022/12/06 11:08:41;;;;;;;5.32;2.63;;;;;;;;;;5041657;28;20045;-71
2022/12/06 11:11:13;;;;;;;8.45;2.50;;;;;;;;;;5042520;28;20460;-73
2022/12/06 11:13:52;;;;;;;4.22;2.30;;;;;;;;;;5038191;28;20041;-74
2022/12/06 11:16:29;;;;;;;3.65;2.00;;;;;;;;;;5011941;28;20056;-72
2022/12/06 11:18:56;;;;;;;8.90;2.53;;;;;;;;;;5038851;28;20106;-73
2022/12/06 11:21:26;;;;;;;4.40;2.30;;;;;;;;;;5044287;28;20526;-72
2022/12/06 11:23:57;;;;;;;6.40;2.42;;;;;;;;;;5043853;28;20048;-73
2022/12/06 11:26:27;;;;;;;3.05;2.28;;;;;;;;;;5047551;28;20056;-73
2022/12/06 11:28:58;;;;;;;5.70;2.40;;;;;;;;;;5046061;28;20132;-71
2022/12/06 11:31:27;;;;;;;7.97;2.40;;;;;;;;;;5046845;28;20416;-70
2022/12/06 11:33:53;;;;;;;4.85;2.35;;;;;;;;;;5049209;28;20040;-71
2022/12/06 11:36:19;;;;;;;4.93;2.10;;;;;;;;;;5046920;28;20381;-71
2022/12/06 11:38:46;;;;;;;6.07;2.25;;;;;;;;;;5042730;28;20053;-71
2022/12/06 11:41:17;;;;;;;6.93;2.30;;;;;;;;;;5044908;28;20048;-73
2022/12/06 11:43:43;;;;;;;10.05;2.58;;;;;;;;;;5047519;28;20041;-72
2022/12/06 11:46:10;;;;;;;4.70;1.80;;;;;;;;;;5047902;28;20064;-71
2022/12/06 11:48:36;;;;;;;3.03;1.80;;;;;;;;;;5039610;28;20044;-73
2022/12/06 11:51:03;;;;;;;10.60;1.80;;;;;;;;;;5045440;28;20041;-72
2022/12/06 11:53:38;;;;;;;4.80;1.70;;;;;;;;;;5045291;28;20041;-70
2022/12/06 11:56:25;;;;;;;2.83;1.65;;;;;;;;;;5044910;28;20043;-73
2022/12/06 11:58:54;;;;;;;6.28;3.13;;;;;;;;;;5041705;28;20072;-73
2022/12/06 12:01:20;;;;;;;3.95;1.95;;;;;;;;;;5046422;28;20077;-71
2022/12/06 12:03:47;;;;;;;5.55;2.10;;;;;;;;;;5046118;28;20138;-73
2022/12/06 12:06:18;;;;;;;5.15;1.77;;;;;;;;;;5046179;28;20047;-72
2022/12/06 12:09:10;;;;;;;4.60;2.30;;;;;;;;;;5043429;28;20437;-70
2022/12/06 12:11:39;;;;;;;5.80;2.15;;;;;;;;;;5040307;28;20037;-72
2022/12/06 12:14:12;;;;;;;4.40;1.63;;;;;;;;;;5045918;28;20045;-72
2022/12/06 12:16:46;;;;;;;3.63;1.88;;;;;;;;;;5047065;28;20037;-70
2022/12/06 12:19:29;;;;;;;3.45;1.77;;;;;;;;;;5048369;28;20056;-70
2022/12/06 12:21:55;;;;;;;;;;;;;;;;;;5046345;28;20061;-70
2022/12/06 12:24:41;;;;;;;5.70;1.65;;;;;;;;;;5046136;28;20306;-71
2022/12/06 12:27:25;;;;;;;4.13;1.70;;;;;;;;;;5040176;28;20063;-72
2022/12/06 12:30:10;;;;;;;6.53;1.98;;;;;;;;;;5039594;28;20049;-72
2022/12/06 12:32:36;;;;;;;3.88;1.80;;;;;;;;;;5045102;28;20045;-70
2022/12/06 12:35:32;;;;;;;4.28;1.90;;;;;;;;;;5043543;28;20056;-70
2022/12/06 12:38:00;;;;;;;4.43;1.80;;;;;;;;;;5014540;28;20120;-70
2022/12/06 12:40:26;;;;;;;4.40;1.90;;;;;;;;;;5043744;28;20041;-70
2022/12/06 12:43:00;;;;;;;4.20;1.65;;;;;;;;;;5047837;28;20032;-72
2022/12/06 12:45:26;;;;;;;4.93;2.15;;;;;;;;;;5048892;28;20049;-72
2022/12/06 12:48:03;;;;;;;5.18;2.10;;;;;;;;;;5047829;28;20033;-73
2022/12/06 12:50:30;;;;;;;4.97;2.00;;;;;;;;;;5043463;28;20551;-72
2022/12/06 12:52:56;;;;;;;10.88;2.22;;;;;;;;;;5041749;28;20127;-72
2022/12/06 12:55:24;;;;;;;3.85;1.90;;;;;;;;;;5048028;28;20048;-72
2022/12/06 12:57:51;;;;;;;4.72;1.80;;;;;;;;;;5045001;28;20064;-71
2022/12/06 13:00:19;;;;;;;3.78;1.88;;;;;;;;;;5046061;28;20040;-70
2022/12/06 13:02:47;;;;;;;4.63;1.55;;;;;;;;;;5046803;28;20053;-71
2022/12/06 13:05:15;;;;;;;8.43;2.80;;;;;;;;;;5047021;28;20040;-70
2022/12/06 13:07:42;;;;;;;3.72;1.73;;;;;;;;;;5042306;28;20068;-73
2022/12/06 13:10:16;;;;;;;3.85;1.80;;;;;;;;;;5044247;28;20052;-71
2022/12/06 13:12:45;;;;;;;4.72;1.73;;;;;;;;;;5047570;28;20095;-72
2022/12/06 13:15:30;;;;;;;4.60;1.52;;;;;;;;;;5046946;28;20072;-70
2022/12/06 13:17:59;;;;;;;9.13;2.13;;;;;;;;;;5047373;28;20033;-69
2022/12/06 13:20:33;;;;;;;4.88;1.80;;;;;;;;;;5039841;28;20048;-69
2022/12/06 13:23:05;;;;;;;4.43;2.17;;;;;;;;;;5047298;28;20045;-70
2022/12/06 13:25:31;;;;;;;3.33;1.80;;;;;;;;;;5040254;28;20080;-70
2022/12/06 13:28:00;;;;;;;4.32;1.90;;;;;;;;;;5052762;28;20131;-70
2022/12/06 13:30:27;;;;;;;4.25;2.03;;;;;;;;;;5049111;28;20132;-73
2022/12/06 13:32:59;;;;;;;4.05;1.85;;;;;;;;;;5051498;28;20373;-70
2022/12/06 13:35:33;;;;;;;8.05;2.15;;;;;;;;;;5044821;28;20407;-72
2022/12/06 13:38:19;;;;;;;4.65;1.80;;;;;;;;;;5052447;28;20044;-72
2022/12/06 13:40:45;;;;;;;6.53;2.00;;;;;;;;;;5043373;28;20036;-72
2022/12/06 13:43:23;;;;;;;6.43;1.67;;;;;;;;;;5047903;28;20045;-72
2022/12/06 13:45:50;;;;;;;3.35;1.70;;;;;;;;;;5041873;28;20037;-71
2022/12/06 13:48:25;;;;;;;4.25;1.73;;;;;;;;;;5050242;28;20510;-70
2022/12/06 13:50:54;;;;;;;2.42;2.05;;;;;;;;;;5053538;28;20041;-70
2022/12/06 13:53:21;;;;;;;3.63;1.88;;;;;;;;;;5045073;28;20048;-72
2022/12/06 13:55:52;;;;;;;3.85;1.85;;;;;;;;;;5049680;28;20123;-70
2022/12/06 13:58:18;;;;;;;3.15;1.83;;;;;;;;;;5042464;28;20064;-72
2022/12/06 14:00:48;;;;;;;5.15;1.80;;;;;;;;;;5044493;28;20080;-72
2022/12/06 14:03:17;;;;;;;6.40;2.10;;;;;;;;;;5051221;28;20041;-70
2022/12/06 14:05:55;;;;;;;7.85;2.03;;;;;;;;;;5043676;28;20041;-72
2022/12/06 14:08:22;;;;;;;3.03;1.90;;;;;;;;;;5047890;28;20152;-70
2022/12/06 14:10:48;;;;;;;5.03;1.77;;;;;;;;;;5027834;28;20087;-72
2022/12/06 14:13:21;;;;;;;5.05;1.83;;;;;;;;;;5045795;28;20044;-70
2022/12/06 14:15:46;;;;;;;;;;;;;;;;;;5042900;28;20049;-72
2022/12/06 14:18:20;;;;;;;2.17;1.50;;;;;;;;;;5032070;28;20019;-72
2022/12/06 14:20:48;;;;;;;4.07;1.80;;;;;;;;;;5045278;28;20040;-70
2022/12/06 14:23:26;;;;;;;2.80;1.70;;;;;;;;;;5028905;28;20099;-70
2022/12/06 14:26:09;;;;;;;4.90;1.70;;;;;;;;;;5047084;28;20063;-71
2022/12/06 14:28:35;;;;;;;6.55;1.85;;;;;;;;;;5045448;28;20099;-72
2022/12/06 14:31:05;;;;;;;4.25;1.75;;;;;;;;;;5043168;28;20048;-71
2022/12/06 14:33:31;;;;;;;2.72;1.60;;;;;;;;;;5044265;28;20419;-70
2022/12/06 14:35:58;;;;;;;7.72;3.60;;;;;;;;;;5041411;28;20469;-70
2022/12/06 14:38:26;;;;;;;5.60;4.13;;;;;;;;;;5045739;28;20044;-70
2022/12/06 14:43:37;;;;;;;6.60;4.07;;;;;;;;;;5062367;28;20056;-72
2022/12/06 14:46:05;;;;;;;4.10;3.15;;;;;;;;;;5029309;28;20041;-72
2022/12/06 14:50:22;;;;;;;4.53;3.75;;;;;;;;;;5046310;28;21003;-71
2022/12/06 14:51:19;;;;;;;10.95;8.63;;;;;;;;;;5043809;28;20043;-70
2022/12/06 14:53:45;;;;;;;14.70;10.80;;;;;;;;;;5043027;28;20045;-70
2022/12/06 14:56:20;;;;;;;15.05;13.65;;;;;;;;;;5045544;28;20045;-70
2022/12/06 14:58:47;;;;;;;17.15;15.43;;;;;;;;;;5043389;28;21768;-70
2022/12/06 15:01:25;;;;;;;17.33;15.25;;;;;;;;;;5045509;28;20044;-71
2022/12/06 15:04:01;;;;;;;23.15;20.92;;;;;;;;;;5045272;28;20041;-72
2022/12/06 15:06:28;;;;;;;20.25;18.45;;;;;;;;;;5026762;28;20038;-72
2022/12/06 15:08:58;;;;;;;21.33;18.50;;;;;;;;;;5043325;28;20381;-72
2022/12/06 15:14:18;;;;;;;12.93;11.73;;;;;;;;;;5041952;28;20041;-72
2022/12/06 15:16:58;;;;;;;25.90;23.50;;;;;;;;;;5043963;28;20079;-71
2022/12/06 15:19:25;;;;;;;32.58;29.38;;;;;;;;;;5045353;28;20045;-71
2022/12/06 15:21:51;;;;;;;31.77;28.77;;;;;;;;;;5043328;28;20037;-71
2022/12/06 15:24:19;;;;;;;20.40;18.38;;;;;;;;;;5044675;28;20041;-72